createdAt,value
2019-03-19T00:00:21.077Z,6.20
2019-03-19T00:02:49.640Z,6.20
2019-03-19T00:05:18.189Z,6.10
2019-03-19T00:07:46.759Z,6.10
2019-03-19T00:10:15.355Z,6.10
2019-03-19T00:12:43.903Z,6.10
2019-03-19T00:15:12.999Z,6.20
2019-03-19T00:17:41.585Z,6.10
2019-03-19T00:20:14.960Z,6.10
2019-03-19T00:22:43.797Z,6.10
2019-03-19T00:25:12.513Z,6.10
2019-03-19T00:27:41.088Z,6.10
2019-03-19T00:30:14.535Z,6.10
2019-03-19T00:32:43.114Z,6.10
2019-03-19T00:35:11.827Z,6.00
2019-03-19T00:37:40.404Z,6.00
2019-03-19T00:40:12.281Z,5.90
2019-03-19T00:42:40.994Z,5.90
2019-03-19T00:45:12.362Z,5.80
2019-03-19T00:47:40.915Z,5.90
2019-03-19T00:50:11.097Z,5.90
2019-03-19T00:52:39.603Z,5.80
2019-03-19T00:55:08.800Z,5.70
2019-03-19T00:57:37.442Z,5.70
2019-03-19T01:00:11.593Z,5.70
2019-03-19T01:02:41.459Z,5.70
2019-03-19T01:05:10.150Z,5.70
2019-03-19T01:07:38.947Z,5.70
2019-03-19T01:10:10.843Z,5.60
2019-03-19T01:12:39.427Z,5.60
2019-03-19T01:15:12.989Z,5.50
2019-03-19T01:17:41.577Z,5.50
2019-03-19T01:20:15.999Z,5.50
2019-03-19T01:22:44.723Z,5.50
2019-03-19T01:25:13.502Z,5.40
2019-03-19T01:27:42.076Z,5.40
2019-03-19T01:30:13.349Z,5.40
2019-03-19T01:32:41.968Z,5.40
2019-03-19T01:35:10.575Z,5.40
2019-03-19T01:37:39.231Z,5.40
2019-03-19T01:40:09.925Z,5.30
2019-03-19T01:42:38.473Z,5.30
2019-03-19T01:45:09.126Z,5.20
2019-03-19T01:47:37.683Z,5.10
2019-03-19T01:50:11.849Z,5.10
2019-03-19T01:52:40.423Z,5.10
2019-03-19T01:55:11.447Z,5.10
2019-03-19T01:57:40.008Z,5.10
2019-03-19T02:00:16.710Z,5.10
2019-03-19T02:02:45.277Z,5.10
2019-03-19T02:05:14.063Z,5.10
2019-03-19T02:08:02.009Z,5.10
2019-03-19T02:10:30.557Z,5.10
2019-03-19T02:12:59.104Z,5.00
2019-03-19T02:15:27.762Z,5.00
2019-03-19T02:17:56.414Z,4.90
2019-03-19T02:23:46.842Z,4.90
2019-03-19T02:26:16.693Z,4.90
2019-03-19T02:28:45.605Z,4.90
2019-03-19T02:31:14.190Z,5.00
2019-03-19T02:34:37.696Z,5.00
2019-03-19T02:37:06.327Z,5.00
2019-03-19T02:39:34.893Z,5.00
2019-03-19T02:42:03.458Z,5.10
2019-03-19T02:44:32.065Z,5.10
2019-03-19T02:47:00.744Z,5.00
2019-03-19T02:49:29.291Z,5.00
2019-03-19T02:51:57.944Z,5.10
2019-03-19T02:54:26.627Z,5.00
2019-03-19T02:56:55.164Z,5.00
2019-03-19T02:59:23.746Z,5.10
2019-03-19T03:01:52.291Z,5.20
2019-03-19T03:04:20.833Z,5.20
2019-03-19T03:06:49.455Z,5.20
2019-03-19T03:09:18.000Z,5.20
2019-03-19T03:11:46.558Z,5.10
2019-03-19T03:14:15.194Z,5.10
2019-03-19T03:16:43.756Z,5.10
2019-03-19T03:19:48.626Z,5.10
2019-03-19T03:22:17.264Z,5.10
2019-03-19T03:24:45.827Z,5.10
2019-03-19T03:27:14.372Z,5.00
2019-03-19T03:29:42.948Z,5.00
2019-03-19T03:32:11.499Z,4.90
2019-03-19T03:34:40.142Z,4.80
2019-03-19T03:37:08.751Z,4.90
2019-03-19T03:39:37.359Z,4.90
2019-03-19T03:42:05.968Z,4.90
2019-03-19T03:44:34.631Z,4.80
2019-03-19T03:47:03.257Z,4.70
2019-03-19T03:49:31.900Z,4.70
2019-03-19T03:52:00.445Z,4.70
2019-03-19T03:54:29.060Z,4.70
2019-03-19T03:57:02.529Z,4.40
2019-03-19T03:59:27.883Z,4.40
2019-03-19T04:01:56.542Z,4.30
2019-03-19T04:04:25.161Z,4.30
2019-03-19T04:06:53.721Z,4.30
2019-03-19T04:09:22.272Z,4.20
2019-03-19T04:11:50.904Z,4.40
2019-03-19T04:14:19.438Z,4.40
2019-03-19T04:16:47.917Z,4.40
2019-03-19T04:19:16.493Z,4.30
2019-03-19T04:21:45.088Z,4.30
2019-03-19T04:24:13.650Z,4.30
2019-03-19T04:26:42.278Z,4.30
2019-03-19T04:29:10.962Z,4.30
2019-03-19T04:31:39.509Z,4.30
2019-03-19T04:34:08.063Z,4.30
2019-03-19T04:36:36.637Z,4.30
2019-03-19T04:39:06.976Z,4.20
2019-03-19T04:41:35.508Z,4.20
2019-03-19T04:44:04.127Z,4.10
2019-03-19T04:46:32.712Z,4.00
2019-03-19T04:49:01.255Z,4.00
2019-03-19T04:51:29.818Z,4.00
2019-03-19T04:53:59.549Z,4.20
2019-03-19T04:56:29.650Z,4.20
2019-03-19T04:58:58.462Z,4.10
2019-03-19T05:01:28.268Z,4.20
2019-03-19T05:03:56.908Z,4.20
2019-03-19T05:06:25.562Z,4.20
2019-03-19T05:08:54.052Z,4.20
2019-03-19T05:11:22.623Z,4.10
2019-03-19T05:13:51.622Z,4.00
2019-03-19T05:16:20.155Z,4.00
2019-03-19T05:18:48.749Z,4.10
2019-03-19T05:21:17.386Z,4.10
2019-03-19T05:23:45.943Z,4.20
2019-03-19T05:26:14.570Z,4.10
2019-03-19T05:28:43.109Z,4.10
2019-03-19T05:31:11.684Z,4.20
2019-03-19T05:33:55.403Z,4.20
2019-03-19T05:36:24.038Z,4.30
2019-03-19T05:38:58.232Z,4.30
2019-03-19T05:41:26.793Z,4.40
2019-03-19T05:43:55.460Z,4.30
2019-03-19T05:46:24.046Z,4.40
2019-03-19T05:48:52.586Z,4.40
2019-03-19T05:51:21.143Z,4.50
2019-03-19T05:53:49.714Z,4.30
2019-03-19T05:56:18.314Z,4.40
2019-03-19T05:58:46.944Z,4.30
2019-03-19T06:01:15.518Z,4.30
2019-03-19T06:03:44.068Z,4.20
2019-03-19T06:06:12.640Z,4.30
2019-03-19T06:08:41.234Z,4.30
2019-03-19T06:11:09.867Z,4.40
2019-03-19T06:13:38.421Z,4.40
2019-03-19T06:16:06.990Z,4.40
2019-03-19T06:18:35.689Z,4.50
2019-03-19T06:21:04.376Z,4.50
2019-03-19T06:23:32.927Z,4.50
2019-03-19T06:26:01.675Z,4.60
2019-03-19T06:28:32.768Z,4.60
2019-03-19T06:31:01.333Z,4.80
2019-03-19T06:33:29.932Z,4.60
2019-03-19T06:39:38.746Z,4.50
2019-03-19T06:42:07.369Z,4.70
2019-03-19T06:44:35.969Z,4.90
2019-03-19T06:47:05.225Z,5.00
2019-03-19T06:49:33.789Z,5.10
2019-03-19T06:52:02.374Z,5.20
2019-03-19T06:54:31.041Z,4.90
2019-03-19T06:56:59.585Z,4.80
2019-03-19T06:59:28.176Z,4.90
2019-03-19T07:01:56.721Z,4.80
2019-03-19T07:04:25.681Z,4.90
2019-03-19T07:06:54.267Z,4.80
2019-03-19T07:09:22.819Z,5.00
2019-03-19T07:11:51.447Z,5.10
2019-03-19T07:14:20.261Z,5.10
2019-03-19T07:16:48.920Z,5.20
2019-03-19T07:19:17.470Z,5.10
2019-03-19T07:21:46.026Z,5.10
2019-03-19T07:24:14.607Z,5.00
2019-03-19T07:26:43.239Z,5.10
2019-03-19T07:29:11.796Z,5.30
2019-03-19T07:31:40.455Z,5.20
2019-03-19T07:34:08.999Z,5.00
2019-03-19T07:36:37.571Z,5.00
2019-03-19T07:39:07.671Z,5.20
2019-03-19T07:41:36.240Z,5.00
2019-03-19T07:44:04.872Z,5.20
2019-03-19T07:49:05.327Z,5.00
2019-03-19T07:51:34.032Z,5.10
2019-03-19T07:54:02.690Z,5.20
2019-03-19T07:56:31.265Z,5.30
2019-03-19T07:59:00.039Z,5.20
2019-03-19T08:01:28.639Z,5.10
2019-03-19T08:03:57.187Z,5.30
2019-03-19T08:06:25.781Z,5.30
2019-03-19T08:08:54.457Z,5.40
2019-03-19T08:11:22.998Z,5.50
2019-03-19T08:13:51.560Z,5.60
2019-03-19T08:16:27.365Z,5.80
2019-03-19T08:18:50.643Z,5.80
2019-03-19T08:21:19.203Z,5.90
2019-03-19T08:23:47.785Z,5.90
2019-03-19T08:26:16.347Z,6.00
2019-03-19T08:28:54.912Z,6.00
2019-03-19T08:31:15.306Z,6.00
2019-03-19T08:33:43.861Z,6.00
2019-03-19T08:36:12.446Z,5.90
2019-03-19T08:38:41.019Z,5.80
2019-03-19T08:41:09.569Z,5.80
2019-03-19T08:43:38.200Z,5.90
2019-03-19T08:46:07.090Z,6.00
2019-03-19T08:48:37.378Z,6.10
2019-03-19T08:51:06.215Z,6.00
2019-03-19T08:53:36.165Z,5.90
2019-03-19T08:56:05.014Z,6.00
2019-03-19T08:58:33.623Z,6.10
2019-03-19T09:01:02.181Z,6.10
2019-03-19T09:03:30.813Z,6.20
2019-03-19T09:05:59.528Z,6.40
2019-03-19T09:08:28.105Z,6.30
2019-03-19T09:10:57.011Z,6.10
2019-03-19T09:13:25.588Z,6.20
2019-03-19T09:15:54.146Z,6.10
2019-03-19T09:18:24.607Z,6.20
2019-03-19T09:20:54.121Z,6.30
2019-03-19T09:23:24.846Z,6.40
2019-03-19T09:25:53.375Z,6.40
2019-03-19T09:28:21.991Z,6.30
2019-03-19T09:30:51.840Z,6.30
2019-03-19T09:33:20.342Z,6.50
2019-03-19T09:35:48.916Z,6.40
2019-03-19T09:38:17.480Z,6.40
2019-03-19T09:40:47.994Z,6.40
2019-03-19T09:43:16.696Z,6.50
2019-03-19T09:45:46.750Z,6.60
2019-03-19T09:48:17.395Z,6.60
2019-03-19T09:50:45.928Z,6.70
2019-03-19T09:53:15.110Z,6.70
2019-03-19T09:55:44.271Z,6.50
2019-03-19T09:58:12.836Z,6.50
2019-03-19T10:00:41.405Z,6.20
2019-03-19T10:03:10.043Z,6.50
2019-03-19T10:05:38.827Z,6.70
2019-03-19T10:08:07.444Z,6.60
2019-03-19T10:10:36.075Z,6.60
2019-03-19T10:13:04.967Z,6.40
2019-03-19T10:15:33.578Z,6.20
2019-03-19T10:18:02.155Z,6.40
2019-03-19T10:20:30.690Z,6.50
2019-03-19T10:22:59.248Z,6.40
2019-03-19T10:25:27.911Z,6.60
2019-03-19T10:27:56.514Z,6.70
2019-03-19T10:30:25.337Z,6.50
2019-03-19T10:32:54.689Z,6.50
2019-03-19T10:35:23.301Z,6.60
2019-03-19T10:37:51.910Z,6.70
2019-03-19T10:40:21.204Z,6.80
2019-03-19T10:42:49.959Z,7.00
2019-03-19T10:45:22.854Z,7.00
2019-03-19T10:47:52.214Z,7.10
2019-03-19T10:50:21.606Z,7.00
2019-03-19T10:52:50.234Z,6.90
2019-03-19T10:55:18.940Z,7.00
2019-03-19T10:57:47.669Z,7.00
2019-03-19T11:00:20.751Z,7.20
2019-03-19T11:02:49.377Z,7.40
2019-03-19T11:05:18.762Z,7.60
2019-03-19T11:07:47.282Z,7.60
2019-03-19T11:10:16.688Z,7.70
2019-03-19T11:12:45.322Z,7.80
2019-03-19T11:15:22.902Z,7.50
2019-03-19T11:17:51.583Z,7.10
2019-03-19T11:20:20.659Z,7.30
2019-03-19T11:22:49.458Z,7.30
2019-03-19T11:25:20.252Z,7.20
2019-03-19T11:27:48.868Z,7.70
2019-03-19T11:30:19.287Z,7.90
2019-03-19T11:32:47.854Z,8.10
2019-03-19T11:35:16.583Z,8.00
2019-03-19T11:37:45.218Z,8.10
2019-03-19T11:40:15.208Z,8.00
2019-03-19T11:42:43.941Z,7.80
2019-03-19T11:45:17.686Z,7.60
2019-03-19T11:47:46.395Z,7.50
2019-03-19T11:50:28.158Z,7.50
2019-03-19T11:52:56.464Z,7.30
2019-03-19T11:55:25.207Z,7.10
2019-03-19T11:57:53.909Z,7.10
2019-03-19T12:00:43.189Z,7.30
2019-03-19T12:03:16.104Z,7.30
2019-03-19T12:05:44.888Z,7.20
2019-03-19T12:08:13.466Z,7.10
2019-03-19T12:10:42.027Z,7.20
2019-03-19T12:13:10.596Z,7.20
2019-03-19T12:15:39.317Z,7.20
2019-03-19T12:18:07.930Z,7.10
2019-03-19T12:20:36.547Z,7.20
2019-03-19T12:23:05.600Z,7.10
2019-03-19T12:25:34.136Z,7.10
2019-03-19T12:28:02.689Z,7.00
2019-03-19T12:30:31.418Z,7.10
2019-03-19T12:32:59.966Z,7.10
2019-03-19T12:35:30.639Z,7.20
2019-03-19T12:37:58.926Z,7.20
2019-03-19T12:40:36.195Z,7.00
2019-03-19T12:42:57.766Z,7.00
2019-03-19T12:45:27.228Z,7.00
2019-03-19T12:47:55.854Z,6.90
2019-03-19T12:50:25.363Z,7.00
2019-03-19T12:52:54.147Z,7.00
2019-03-19T12:55:22.815Z,7.10
2019-03-19T12:57:51.360Z,7.10
2019-03-19T13:02:54.017Z,7.30
2019-03-19T13:06:07.800Z,7.20
2019-03-19T13:10:49.164Z,7.50
2019-03-19T13:13:20.491Z,7.20
2019-03-19T13:15:49.036Z,7.30
2019-03-19T13:18:20.880Z,7.10
2019-03-19T13:20:49.541Z,7.00
2019-03-19T13:23:18.221Z,7.20
2019-03-19T13:25:46.847Z,7.20
2019-03-19T13:28:15.392Z,7.10
2019-03-19T13:30:46.800Z,7.20
2019-03-19T13:33:15.372Z,7.30
2019-03-19T13:35:45.812Z,7.30
2019-03-19T13:38:14.356Z,7.30
2019-03-19T13:40:40.768Z,7.30
2019-03-19T13:43:10.364Z,7.30
2019-03-19T13:45:37.776Z,7.20
2019-03-19T13:48:04.225Z,7.30
2019-03-19T13:50:30.527Z,7.40
2019-03-19T13:52:56.955Z,7.50
2019-03-19T13:55:23.563Z,7.50
2019-03-19T13:57:49.988Z,7.50
2019-03-19T14:00:19.168Z,7.20
2019-03-19T14:02:52.500Z,7.30
2019-03-19T14:05:19.339Z,7.20
2019-03-19T14:07:47.574Z,7.30
2019-03-19T14:10:18.404Z,7.30
2019-03-19T14:12:45.439Z,7.40
2019-03-19T14:15:37.365Z,7.40
2019-03-19T14:18:03.774Z,7.40
2019-03-19T14:20:33.103Z,7.30
2019-03-19T14:22:59.399Z,7.10
2019-03-19T14:25:25.883Z,7.20
2019-03-19T14:27:52.248Z,7.30
2019-03-19T14:30:19.643Z,7.40
2019-03-19T14:32:47.537Z,7.40
2019-03-19T14:35:14.364Z,7.30
2019-03-19T14:37:41.313Z,7.40
2019-03-19T14:40:10.901Z,7.50
2019-03-19T14:42:37.461Z,7.60
2019-03-19T14:45:10.403Z,7.80
2019-03-19T14:47:36.840Z,7.90
2019-03-19T14:50:09.956Z,7.80
2019-03-19T14:52:38.353Z,7.70
2019-03-19T14:55:06.661Z,7.70
2019-03-19T14:57:32.973Z,7.60
2019-03-19T15:00:05.735Z,7.50
2019-03-19T15:02:34.483Z,7.60
2019-03-19T15:05:02.259Z,7.70
2019-03-19T15:07:28.548Z,7.70
2019-03-19T15:09:55.130Z,7.50
2019-03-19T15:12:21.438Z,7.60
2019-03-19T15:14:49.895Z,7.70
2019-03-19T15:17:17.007Z,7.70
2019-03-19T15:19:49.705Z,7.60
2019-03-19T15:22:15.903Z,7.60
2019-03-19T15:24:43.487Z,7.60
2019-03-19T15:27:11.149Z,7.60
2019-03-19T15:29:37.585Z,7.60
2019-03-19T15:32:05.143Z,7.40
2019-03-19T15:34:32.740Z,7.30
2019-03-19T15:36:59.455Z,7.30
2019-03-19T15:39:27.907Z,7.40
2019-03-19T15:41:56.386Z,7.40
2019-03-19T15:44:26.517Z,7.30
2019-03-19T15:47:17.600Z,7.40
2019-03-19T15:49:45.322Z,7.30
2019-03-19T15:52:12.091Z,7.30
2019-03-19T15:54:38.670Z,7.30
2019-03-19T15:57:05.347Z,7.40
2019-03-19T15:59:36.541Z,7.30
2019-03-19T16:02:03.587Z,7.30
2019-03-19T16:04:29.929Z,7.40
2019-03-19T16:06:56.259Z,7.40
2019-03-19T16:09:22.664Z,7.50
2019-03-19T16:11:52.404Z,7.20
2019-03-19T16:14:20.079Z,7.10
2019-03-19T16:16:46.356Z,7.20
2019-03-19T16:19:13.319Z,7.20
2019-03-19T16:21:41.458Z,7.20
2019-03-19T16:24:08.997Z,7.20
2019-03-19T16:26:39.549Z,7.20
2019-03-19T16:29:24.367Z,7.10
2019-03-19T16:31:54.188Z,7.10
2019-03-19T16:34:24.407Z,7.10
2019-03-19T16:36:52.993Z,7.10
2019-03-19T16:39:21.495Z,7.10
2019-03-19T16:41:50.109Z,7.00
2019-03-19T16:44:20.052Z,7.00
2019-03-19T16:46:50.411Z,7.10
2019-03-19T16:49:20.516Z,7.00
2019-03-19T16:51:50.490Z,7.00
2019-03-19T16:54:22.285Z,7.00
2019-03-19T16:56:50.859Z,6.90
2019-03-19T16:59:19.424Z,6.90
2019-03-19T17:01:49.223Z,6.90
2019-03-19T17:04:21.503Z,6.80
2019-03-19T17:06:49.789Z,6.80
2019-03-19T17:09:18.350Z,6.80
2019-03-19T17:11:48.332Z,6.90
2019-03-19T17:14:16.879Z,6.90
2019-03-19T17:16:46.462Z,6.90
2019-03-19T17:19:18.425Z,6.90
2019-03-19T17:21:49.497Z,6.90
2019-03-19T17:24:21.394Z,6.80
2019-03-19T17:26:52.572Z,6.70
2019-03-19T17:29:23.452Z,6.80
2019-03-19T17:32:13.349Z,6.70
2019-03-19T17:34:43.409Z,6.70
2019-03-19T17:37:12.021Z,6.60
2019-03-19T17:39:40.612Z,6.60
2019-03-19T17:42:09.231Z,6.50
2019-03-19T17:44:37.820Z,6.50
2019-03-19T17:47:07.652Z,6.60
2019-03-19T17:49:37.298Z,6.60
2019-03-19T17:52:06.768Z,6.60
2019-03-19T17:55:18.109Z,6.60
2019-03-19T17:57:53.254Z,6.50
2019-03-19T18:00:26.610Z,6.40
2019-03-19T18:02:55.142Z,6.40
2019-03-19T18:05:25.266Z,6.30
2019-03-19T18:07:53.873Z,6.30
2019-03-19T18:10:40.923Z,6.30
2019-03-19T18:13:09.620Z,6.30
2019-03-19T18:15:39.974Z,6.40
2019-03-19T18:18:09.883Z,6.40
2019-03-19T18:20:39.008Z,6.40
2019-03-19T18:23:10.695Z,6.40
2019-03-19T18:26:15.678Z,6.30
2019-03-19T18:28:46.703Z,6.20
2019-03-19T18:31:17.379Z,6.30
2019-03-19T18:33:46.007Z,6.30
2019-03-19T18:36:16.108Z,6.30
2019-03-19T18:38:44.898Z,6.20
2019-03-19T18:41:16.118Z,6.20
2019-03-19T18:43:51.967Z,6.20
2019-03-19T18:46:23.378Z,6.30
2019-03-19T18:48:53.454Z,6.20
2019-03-19T18:51:24.067Z,6.20
2019-03-19T18:53:55.171Z,6.20
2019-03-19T18:56:23.747Z,6.20
2019-03-19T18:58:54.200Z,6.20
2019-03-19T19:01:24.167Z,6.30
2019-03-19T19:03:52.787Z,6.30
2019-03-19T19:06:22.132Z,6.30
2019-03-19T19:12:25.356Z,6.00
2019-03-19T19:14:53.944Z,6.00
2019-03-19T19:17:24.272Z,6.00
2019-03-19T19:19:53.412Z,6.00
2019-03-19T19:22:22.008Z,5.90
2019-03-19T19:24:50.557Z,6.00
2019-03-19T19:27:20.827Z,6.00
2019-03-19T19:29:50.739Z,6.00
2019-03-19T19:32:20.004Z,6.00
2019-03-19T19:34:48.785Z,6.10
2019-03-19T19:37:17.771Z,5.90
2019-03-19T19:39:46.632Z,5.90
2019-03-19T19:42:15.304Z,5.90
2019-03-19T19:44:43.898Z,5.90
2019-03-19T19:47:15.292Z,5.90
2019-03-19T19:49:50.244Z,5.70
2019-03-19T19:52:24.149Z,5.70
2019-03-19T19:55:03.401Z,5.70
2019-03-19T19:57:31.935Z,5.70
2019-03-19T20:00:01.918Z,5.70
2019-03-19T20:02:30.964Z,5.80
2019-03-19T20:05:03.250Z,5.90
2019-03-19T20:07:29.842Z,5.90
2019-03-19T20:09:58.509Z,6.00
2019-03-19T20:12:28.035Z,5.90
2019-03-19T20:14:56.955Z,5.90
2019-03-19T20:17:27.066Z,5.80
2019-03-19T20:19:58.878Z,5.90
2019-03-19T20:22:27.619Z,6.00
2019-03-19T20:24:56.768Z,6.00
2019-03-19T20:27:26.533Z,5.90
2019-03-19T20:29:55.170Z,6.00
2019-03-19T20:32:23.867Z,6.00
2019-03-19T20:34:52.608Z,5.90
2019-03-19T20:37:21.199Z,5.90
2019-03-19T20:39:50.028Z,6.00
2019-03-19T20:42:20.713Z,5.90
2019-03-19T20:44:49.402Z,5.70
2019-03-19T20:47:18.519Z,5.60
2019-03-19T20:49:48.070Z,5.60
2019-03-19T20:52:16.968Z,5.70
2019-03-19T20:54:45.661Z,5.70
2019-03-19T20:57:14.248Z,5.60
2019-03-19T20:59:45.433Z,5.60
2019-03-19T21:02:14.059Z,5.50
2019-03-19T21:04:42.669Z,5.50
2019-03-19T21:07:11.249Z,5.40
2019-03-19T21:09:42.712Z,5.40
2019-03-19T21:12:11.379Z,5.50
2019-03-19T21:14:40.239Z,5.50
2019-03-19T21:17:10.192Z,5.50
2019-03-19T21:19:38.864Z,5.60
2019-03-19T21:22:07.812Z,5.60
2019-03-19T21:24:38.079Z,5.60
2019-03-19T21:27:06.870Z,5.60
2019-03-19T21:29:35.939Z,5.50
2019-03-19T21:32:04.697Z,5.40
2019-03-19T21:34:34.236Z,5.40
2019-03-19T21:37:04.689Z,5.40
2019-03-19T21:39:34.572Z,5.40
2019-03-19T21:42:03.386Z,5.40
2019-03-19T21:44:32.043Z,5.30
2019-03-19T21:47:03.103Z,5.20
2019-03-19T21:49:32.680Z,5.10
2019-03-19T21:52:01.612Z,5.10
2019-03-19T21:54:30.529Z,5.00
2019-03-19T21:57:00.445Z,5.00
2019-03-19T21:59:29.493Z,5.00
2019-03-19T22:01:58.150Z,5.10
2019-03-19T22:04:26.817Z,5.00
2019-03-19T22:06:55.417Z,5.00
2019-03-19T22:09:24.122Z,5.00
2019-03-19T22:11:52.807Z,5.10
2019-03-19T22:14:21.431Z,5.00
2019-03-19T22:16:52.469Z,5.00
2019-03-19T22:19:21.272Z,5.00
2019-03-19T22:21:49.884Z,5.00
2019-03-19T22:24:18.465Z,5.00
2019-03-19T22:26:47.089Z,4.90
2019-03-19T22:29:16.490Z,4.90
2019-03-19T22:31:45.677Z,4.90
2019-03-19T22:34:14.610Z,4.90
2019-03-19T22:36:43.279Z,5.00
2019-03-19T22:39:12.247Z,5.00
2019-03-19T22:41:44.659Z,5.00
2019-03-19T22:44:13.374Z,5.10
2019-03-19T22:46:42.068Z,5.10
2019-03-19T22:49:10.715Z,5.00
2019-03-19T22:51:39.293Z,5.00
2019-03-19T22:54:07.887Z,5.00
2019-03-19T22:56:36.459Z,5.00
2019-03-19T22:59:05.104Z,5.00
2019-03-19T23:01:33.691Z,5.00
2019-03-19T23:04:02.318Z,4.90
2019-03-19T23:06:30.997Z,4.90
2019-03-19T23:08:59.605Z,4.80
2019-03-19T23:11:28.169Z,4.90
2019-03-19T23:13:56.954Z,4.90
2019-03-19T23:16:25.583Z,4.90
2019-03-19T23:18:54.440Z,4.90
2019-03-19T23:21:23.109Z,4.90
2019-03-19T23:23:51.722Z,4.90
2019-03-19T23:26:20.303Z,4.90
2019-03-19T23:28:49.004Z,4.90
2019-03-19T23:31:17.617Z,4.90
2019-03-19T23:33:46.199Z,4.90
2019-03-19T23:36:15.615Z,4.80
2019-03-19T23:38:44.259Z,4.80
2019-03-19T23:41:12.821Z,4.80
2019-03-19T23:43:41.424Z,4.60
2019-03-19T23:46:10.107Z,4.60
2019-03-19T23:48:38.659Z,4.60
2019-03-19T23:51:07.388Z,4.50
2019-03-19T23:53:35.994Z,4.50
2019-03-19T23:56:04.609Z,4.50
2019-03-19T23:58:33.192Z,4.50
